sensor_id;sensor_type;location;lat;lon;timestamp;P1;durP1;ratioP1;P2;durP2;ratioP2
9108;SDS011;4590;51.462;6.692;2024-01-16T00:01:48;5.85;;;3.60;;
9108;SDS011;4590;51.462;6.692;2024-01-16T00:04:17;9.40;;;4.27;;
9108;SDS011;4590;51.462;6.692;2024-01-16T00:07:02;10.30;;;3.63;;
9108;SDS011;4590;51.462;6.692;2024-01-16T00:09:56;8.00;;;3.65;;
9108;SDS011;4590;51.462;6.692;2024-01-16T00:13:03;7.85;;;3.53;;
9108;SDS011;4590;51.462;6.692;2024-01-16T00:15:47;8.70;;;3.35;;
9108;SDS011;4590;51.462;6.692;2024-01-16T00:18:23;5.13;;;3.17;;
9108;SDS011;4590;51.462;6.692;2024-01-16T00:20:51;7.28;;;3.10;;
9108;SDS011;4590;51.462;6.692;2024-01-16T00:26:25;6.97;;;3.35;;
9108;SDS011;4590;51.462;6.692;2024-01-16T00:29:12;5.72;;;3.47;;
9108;SDS011;4590;51.462;6.692;2024-01-16T00:31:45;7.35;;;3.22;;
9108;SDS011;4590;51.462;6.692;2024-01-16T00:34:12;6.22;;;3.25;;
9108;SDS011;4590;51.462;6.692;2024-01-16T00:37:09;6.60;;;3.40;;
9108;SDS011;4590;51.462;6.692;2024-01-16T00:40:03;6.80;;;3.35;;
9108;SDS011;4590;51.462;6.692;2024-01-16T00:42:42;6.88;;;3.35;;
9108;SDS011;4590;51.462;6.692;2024-01-16T00:45:26;5.07;;;3.25;;
9108;SDS011;4590;51.462;6.692;2024-01-16T00:48:00;7.78;;;3.40;;
9108;SDS011;4590;51.462;6.692;2024-01-16T00:50:42;5.93;;;3.33;;
9108;SDS011;4590;51.462;6.692;2024-01-16T00:53:56;5.70;;;3.20;;
9108;SDS011;4590;51.462;6.692;2024-01-16T00:56:30;7.38;;;3.50;;
9108;SDS011;4590;51.462;6.692;2024-01-16T00:59:09;5.50;;;3.15;;
9108;SDS011;4590;51.462;6.692;2024-01-16T01:01:49;4.90;;;3.25;;
9108;SDS011;4590;51.462;6.692;2024-01-16T01:04:15;8.07;;;3.42;;
9108;SDS011;4590;51.462;6.692;2024-01-16T01:06:43;6.68;;;3.30;;
9108;SDS011;4590;51.462;6.692;2024-01-16T01:09:16;12.05;;;4.07;;
9108;SDS011;4590;51.462;6.692;2024-01-16T01:11:53;5.90;;;3.22;;
9108;SDS011;4590;51.462;6.692;2024-01-16T01:14:30;10.48;;;3.45;;
9108;SDS011;4590;51.462;6.692;2024-01-16T01:17:00;8.00;;;4.00;;
9108;SDS011;4590;51.462;6.692;2024-01-16T01:20:11;5.78;;;3.80;;
9108;SDS011;4590;51.462;6.692;2024-01-16T01:22:55;8.15;;;3.67;;
9108;SDS011;4590;51.462;6.692;2024-01-16T01:25:20;7.87;;;3.90;;
9108;SDS011;4590;51.462;6.692;2024-01-16T01:27:56;10.13;;;4.13;;
9108;SDS011;4590;51.462;6.692;2024-01-16T01:30:28;7.57;;;4.07;;
9108;SDS011;4590;51.462;6.692;2024-01-16T01:33:20;7.70;;;3.72;;
9108;SDS011;4590;51.462;6.692;2024-01-16T01:35:46;7.22;;;3.95;;
9108;SDS011;4590;51.462;6.692;2024-01-16T01:38:30;5.97;;;3.55;;
9108;SDS011;4590;51.462;6.692;2024-01-16T01:41:30;5.85;;;3.88;;
9108;SDS011;4590;51.462;6.692;2024-01-16T01:44:34;6.47;;;3.80;;
9108;SDS011;4590;51.462;6.692;2024-01-16T01:47:23;8.25;;;3.85;;
9108;SDS011;4590;51.462;6.692;2024-01-16T01:49:51;6.38;;;3.33;;
9108;SDS011;4590;51.462;6.692;2024-01-16T01:52:21;7.40;;;3.88;;
9108;SDS011;4590;51.462;6.692;2024-01-16T01:54:48;5.93;;;3.72;;
9108;SDS011;4590;51.462;6.692;2024-01-16T01:57:33;8.73;;;4.10;;
9108;SDS011;4590;51.462;6.692;2024-01-16T02:00:22;7.53;;;3.83;;
9108;SDS011;4590;51.462;6.692;2024-01-16T02:02:54;7.53;;;3.63;;
9108;SDS011;4590;51.462;6.692;2024-01-16T02:05:34;6.93;;;3.40;;
9108;SDS011;4590;51.462;6.692;2024-01-16T02:08:05;6.38;;;3.95;;
9108;SDS011;4590;51.462;6.692;2024-01-16T02:10:38;8.57;;;3.72;;
9108;SDS011;4590;51.462;6.692;2024-01-16T02:13:36;8.97;;;3.67;;
9108;SDS011;4590;51.462;6.692;2024-01-16T02:16:49;6.32;;;3.78;;
9108;SDS011;4590;51.462;6.692;2024-01-16T02:19:46;6.25;;;3.60;;
9108;SDS011;4590;51.462;6.692;2024-01-16T02:22:23;5.25;;;3.70;;
9108;SDS011;4590;51.462;6.692;2024-01-16T02:25:17;6.78;;;3.70;;
9108;SDS011;4590;51.462;6.692;2024-01-16T02:27:52;5.75;;;4.32;;
9108;SDS011;4590;51.462;6.692;2024-01-16T02:30:50;6.63;;;4.10;;
9108;SDS011;4590;51.462;6.692;2024-01-16T02:33:25;8.73;;;4.45;;
9108;SDS011;4590;51.462;6.692;2024-01-16T02:36:05;6.80;;;4.18;;
9108;SDS011;4590;51.462;6.692;2024-01-16T02:39:21;8.07;;;4.82;;
9108;SDS011;4590;51.462;6.692;2024-01-16T02:42:29;8.82;;;5.05;;
9108;SDS011;4590;51.462;6.692;2024-01-16T02:45:16;8.90;;;4.97;;
9108;SDS011;4590;51.462;6.692;2024-01-16T02:47:47;8.23;;;5.13;;
9108;SDS011;4590;51.462;6.692;2024-01-16T02:50:15;9.32;;;5.47;;
9108;SDS011;4590;51.462;6.692;2024-01-16T02:52:47;9.80;;;5.90;;
9108;SDS011;4590;51.462;6.692;2024-01-16T02:55:37;9.48;;;5.80;;
9108;SDS011;4590;51.462;6.692;2024-01-16T02:58:29;7.75;;;5.50;;
9108;SDS011;4590;51.462;6.692;2024-01-16T03:01:03;9.10;;;5.72;;
9108;SDS011;4590;51.462;6.692;2024-01-16T03:03:45;8.18;;;5.57;;
9108;SDS011;4590;51.462;6.692;2024-01-16T03:06:24;10.05;;;6.70;;
9108;SDS011;4590;51.462;6.692;2024-01-16T03:09:01;7.85;;;5.57;;
9108;SDS011;4590;51.462;6.692;2024-01-16T03:11:53;10.05;;;6.05;;
9108;SDS011;4590;51.462;6.692;2024-01-16T03:14:19;11.23;;;6.30;;
9108;SDS011;4590;51.462;6.692;2024-01-16T03:17:31;9.77;;;5.80;;
9108;SDS011;4590;51.462;6.692;2024-01-16T03:20:24;10.88;;;6.00;;
9108;SDS011;4590;51.462;6.692;2024-01-16T03:22:54;8.60;;;5.95;;
9108;SDS011;4590;51.462;6.692;2024-01-16T03:25:27;9.57;;;6.40;;
9108;SDS011;4590;51.462;6.692;2024-01-16T03:28:06;9.85;;;6.30;;
9108;SDS011;4590;51.462;6.692;2024-01-16T03:30:47;8.68;;;5.85;;
9108;SDS011;4590;51.462;6.692;2024-01-16T03:33:17;8.82;;;6.22;;
9108;SDS011;4590;51.462;6.692;2024-01-16T03:36:15;11.65;;;6.35;;
9108;SDS011;4590;51.462;6.692;2024-01-16T03:38:47;9.30;;;5.78;;
9108;SDS011;4590;51.462;6.692;2024-01-16T03:41:16;11.50;;;6.93;;
9108;SDS011;4590;51.462;6.692;2024-01-16T03:44:40;12.30;;;6.55;;
9108;SDS011;4590;51.462;6.692;2024-01-16T03:47:45;10.40;;;5.97;;
9108;SDS011;4590;51.462;6.692;2024-01-16T03:50:25;11.80;;;6.82;;
9108;SDS011;4590;51.462;6.692;2024-01-16T03:52:58;10.82;;;6.30;;
9108;SDS011;4590;51.462;6.692;2024-01-16T03:55:37;13.23;;;6.68;;
9108;SDS011;4590;51.462;6.692;2024-01-16T03:58:09;11.70;;;6.23;;
9108;SDS011;4590;51.462;6.692;2024-01-16T04:00:56;11.77;;;6.97;;
9108;SDS011;4590;51.462;6.692;2024-01-16T04:03:27;11.43;;;6.20;;
9108;SDS011;4590;51.462;6.692;2024-01-16T04:06:19;11.30;;;6.32;;
9108;SDS011;4590;51.462;6.692;2024-01-16T04:09:07;11.63;;;6.25;;
9108;SDS011;4590;51.462;6.692;2024-01-16T04:11:39;11.70;;;6.30;;
9108;SDS011;4590;51.462;6.692;2024-01-16T04:14:08;10.13;;;5.88;;
9108;SDS011;4590;51.462;6.692;2024-01-16T04:16:56;9.20;;;6.03;;
9108;SDS011;4590;51.462;6.692;2024-01-16T04:19:53;10.45;;;5.18;;
9108;SDS011;4590;51.462;6.692;2024-01-16T04:22:45;9.30;;;4.78;;
9108;SDS011;4590;51.462;6.692;2024-01-16T04:25:38;13.25;;;4.63;;
9108;SDS011;4590;51.462;6.692;2024-01-16T04:28:35;7.82;;;4.45;;
9108;SDS011;4590;51.462;6.692;2024-01-16T04:31:05;8.82;;;4.80;;
9108;SDS011;4590;51.462;6.692;2024-01-16T04:33:43;10.00;;;4.53;;
9108;SDS011;4590;51.462;6.692;2024-01-16T04:36:25;6.75;;;3.85;;
9108;SDS011;4590;51.462;6.692;2024-01-16T04:39:27;7.35;;;3.65;;
9108;SDS011;4590;51.462;6.692;2024-01-16T04:42:09;6.28;;;3.80;;
9108;SDS011;4590;51.462;6.692;2024-01-16T04:45:17;5.18;;;3.45;;
9108;SDS011;4590;51.462;6.692;2024-01-16T04:47:43;5.63;;;3.55;;
9108;SDS011;4590;51.462;6.692;2024-01-16T04:50:22;6.65;;;3.70;;
9108;SDS011;4590;51.462;6.692;2024-01-16T04:53:20;5.13;;;3.25;;
9108;SDS011;4590;51.462;6.692;2024-01-16T04:56:33;5.07;;;3.08;;
9108;SDS011;4590;51.462;6.692;2024-01-16T04:59:09;4.82;;;2.90;;
9108;SDS011;4590;51.462;6.692;2024-01-16T05:02:06;4.38;;;2.40;;
9108;SDS011;4590;51.462;6.692;2024-01-16T05:04:37;5.53;;;2.30;;
9108;SDS011;4590;51.462;6.692;2024-01-16T05:07:48;6.70;;;2.78;;
9108;SDS011;4590;51.462;6.692;2024-01-16T05:10:24;4.22;;;2.20;;
9108;SDS011;4590;51.462;6.692;2024-01-16T05:12:58;4.75;;;2.58;;
9108;SDS011;4590;51.462;6.692;2024-01-16T05:15:29;4.82;;;2.10;;
9108;SDS011;4590;51.462;6.692;2024-01-16T05:18:06;3.47;;;2.28;;
9108;SDS011;4590;51.462;6.692;2024-01-16T05:20:55;4.95;;;2.28;;
9108;SDS011;4590;51.462;6.692;2024-01-16T05:23:24;6.22;;;2.63;;
9108;SDS011;4590;51.462;6.692;2024-01-16T05:26:16;6.07;;;3.33;;
9108;SDS011;4590;51.462;6.692;2024-01-16T05:28:52;4.35;;;2.92;;
9108;SDS011;4590;51.462;6.692;2024-01-16T05:31:28;6.75;;;3.50;;
9108;SDS011;4590;51.462;6.692;2024-01-16T05:34:01;4.35;;;3.13;;
9108;SDS011;4590;51.462;6.692;2024-01-16T05:36:27;7.97;;;4.32;;
9108;SDS011;4590;51.462;6.692;2024-01-16T05:39:05;7.30;;;4.45;;
9108;SDS011;4590;51.462;6.692;2024-01-16T05:42:02;8.30;;;5.05;;
9108;SDS011;4590;51.462;6.692;2024-01-16T05:44:32;10.68;;;5.68;;
9108;SDS011;4590;51.462;6.692;2024-01-16T05:46:58;11.70;;;6.22;;
9108;SDS011;4590;51.462;6.692;2024-01-16T05:49:29;12.95;;;7.35;;
9108;SDS011;4590;51.462;6.692;2024-01-16T05:52:06;13.45;;;8.60;;
9108;SDS011;4590;51.462;6.692;2024-01-16T05:54:42;12.80;;;8.30;;
9108;SDS011;4590;51.462;6.692;2024-01-16T05:57:32;14.43;;;9.30;;
9108;SDS011;4590;51.462;6.692;2024-01-16T06:00:36;14.48;;;9.48;;
9108;SDS011;4590;51.462;6.692;2024-01-16T06:03:29;18.60;;;10.27;;
9108;SDS011;4590;51.462;6.692;2024-01-16T06:06:06;19.52;;;11.18;;
9108;SDS011;4590;51.462;6.692;2024-01-16T06:09:03;16.42;;;10.05;;
9108;SDS011;4590;51.462;6.692;2024-01-16T06:11:55;16.42;;;9.85;;
9108;SDS011;4590;51.462;6.692;2024-01-16T06:14:40;16.02;;;9.55;;
9108;SDS011;4590;51.462;6.692;2024-01-16T06:17:14;18.77;;;10.20;;
9108;SDS011;4590;51.462;6.692;2024-01-16T06:19:45;13.23;;;8.43;;
9108;SDS011;4590;51.462;6.692;2024-01-16T06:22:54;19.48;;;9.02;;
9108;SDS011;4590;51.462;6.692;2024-01-16T06:25:23;22.08;;;9.32;;
9108;SDS011;4590;51.462;6.692;2024-01-16T06:28:18;14.52;;;7.88;;
9108;SDS011;4590;51.462;6.692;2024-01-16T06:31:00;16.33;;;8.15;;
9108;SDS011;4590;51.462;6.692;2024-01-16T06:33:51;15.73;;;7.60;;
9108;SDS011;4590;51.462;6.692;2024-01-16T06:36:30;12.73;;;7.32;;
9108;SDS011;4590;51.462;6.692;2024-01-16T06:39:00;13.35;;;6.70;;
9108;SDS011;4590;51.462;6.692;2024-01-16T06:41:47;14.18;;;6.75;;
9108;SDS011;4590;51.462;6.692;2024-01-16T06:44:36;13.55;;;6.35;;
9108;SDS011;4590;51.462;6.692;2024-01-16T06:47:04;16.15;;;6.55;;
9108;SDS011;4590;51.462;6.692;2024-01-16T06:49:35;11.20;;;5.50;;
9108;SDS011;4590;51.462;6.692;2024-01-16T06:52:24;10.27;;;5.32;;
9108;SDS011;4590;51.462;6.692;2024-01-16T06:55:01;14.45;;;5.97;;
9108;SDS011;4590;51.462;6.692;2024-01-16T06:57:45;11.80;;;5.95;;
9108;SDS011;4590;51.462;6.692;2024-01-16T07:00:28;12.07;;;5.82;;
9108;SDS011;4590;51.462;6.692;2024-01-16T07:03:03;11.98;;;5.57;;
9108;SDS011;4590;51.462;6.692;2024-01-16T07:05:33;15.65;;;6.25;;
9108;SDS011;4590;51.462;6.692;2024-01-16T07:08:10;11.73;;;6.35;;
9108;SDS011;4590;51.462;6.692;2024-01-16T07:10:43;12.95;;;6.80;;
9108;SDS011;4590;51.462;6.692;2024-01-16T07:13:21;14.23;;;6.68;;
9108;SDS011;4590;51.462;6.692;2024-01-16T07:15:50;10.93;;;6.47;;
9108;SDS011;4590;51.462;6.692;2024-01-16T07:18:26;11.25;;;5.88;;
9108;SDS011;4590;51.462;6.692;2024-01-16T07:21:25;14.15;;;6.45;;
9108;SDS011;4590;51.462;6.692;2024-01-16T07:24:15;13.45;;;6.32;;
9108;SDS011;4590;51.462;6.692;2024-01-16T07:26:49;17.10;;;5.70;;
9108;SDS011;4590;51.462;6.692;2024-01-16T07:29:19;12.63;;;5.70;;
9108;SDS011;4590;51.462;6.692;2024-01-16T07:32:13;10.93;;;5.55;;
9108;SDS011;4590;51.462;6.692;2024-01-16T07:35:02;9.30;;;4.82;;
9108;SDS011;4590;51.462;6.692;2024-01-16T07:37:36;9.52;;;4.55;;
9108;SDS011;4590;51.462;6.692;2024-01-16T07:40:21;13.40;;;5.63;;
9108;SDS011;4590;51.462;6.692;2024-01-16T07:42:54;13.65;;;4.88;;
9108;SDS011;4590;51.462;6.692;2024-01-16T07:45:55;10.45;;;4.35;;
9108;SDS011;4590;51.462;6.692;2024-01-16T07:48:42;11.07;;;5.38;;
9108;SDS011;4590;51.462;6.692;2024-01-16T07:51:10;10.45;;;5.00;;
9108;SDS011;4590;51.462;6.692;2024-01-16T07:53:58;9.93;;;4.10;;
9108;SDS011;4590;51.462;6.692;2024-01-16T07:56:54;11.35;;;4.32;;
9108;SDS011;4590;51.462;6.692;2024-01-16T07:59:32;12.98;;;4.03;;
9108;SDS011;4590;51.462;6.692;2024-01-16T08:02:04;10.05;;;3.55;;
9108;SDS011;4590;51.462;6.692;2024-01-16T08:04:38;10.77;;;3.90;;
9108;SDS011;4590;51.462;6.692;2024-01-16T08:07:09;9.68;;;3.55;;
9108;SDS011;4590;51.462;6.692;2024-01-16T08:10:05;13.18;;;3.95;;
9108;SDS011;4590;51.462;6.692;2024-01-16T08:12:41;9.95;;;4.00;;
9108;SDS011;4590;51.462;6.692;2024-01-16T08:15:07;7.35;;;3.58;;
9108;SDS011;4590;51.462;6.692;2024-01-16T08:17:43;8.05;;;3.33;;
9108;SDS011;4590;51.462;6.692;2024-01-16T08:20:18;9.77;;;3.33;;
9108;SDS011;4590;51.462;6.692;2024-01-16T08:22:46;6.95;;;3.17;;
9108;SDS011;4590;51.462;6.692;2024-01-16T08:25:17;8.18;;;3.10;;
9108;SDS011;4590;51.462;6.692;2024-01-16T08:28:19;7.78;;;3.17;;
9108;SDS011;4590;51.462;6.692;2024-01-16T08:30:56;5.97;;;2.63;;
9108;SDS011;4590;51.462;6.692;2024-01-16T08:33:28;10.38;;;3.22;;
9108;SDS011;4590;51.462;6.692;2024-01-16T08:36:14;9.37;;;3.47;;
9108;SDS011;4590;51.462;6.692;2024-01-16T08:38:43;10.05;;;3.35;;
9108;SDS011;4590;51.462;6.692;2024-01-16T08:41:21;7.05;;;3.25;;
9108;SDS011;4590;51.462;6.692;2024-01-16T08:43:54;8.40;;;3.20;;
9108;SDS011;4590;51.462;6.692;2024-01-16T08:46:43;7.05;;;2.80;;
9108;SDS011;4590;51.462;6.692;2024-01-16T08:49:12;11.35;;;3.30;;
9108;SDS011;4590;51.462;6.692;2024-01-16T08:51:57;6.40;;;3.22;;
9108;SDS011;4590;51.462;6.692;2024-01-16T08:54:35;7.75;;;3.40;;
9108;SDS011;4590;51.462;6.692;2024-01-16T08:57:08;10.00;;;3.13;;
9108;SDS011;4590;51.462;6.692;2024-01-16T08:59:41;8.48;;;2.70;;
9108;SDS011;4590;51.462;6.692;2024-01-16T09:02:08;8.85;;;3.38;;
9108;SDS011;4590;51.462;6.692;2024-01-16T09:05:10;13.77;;;3.25;;
9108;SDS011;4590;51.462;6.692;2024-01-16T09:07:44;8.73;;;2.70;;
9108;SDS011;4590;51.462;6.692;2024-01-16T09:10:17;10.50;;;3.50;;
9108;SDS011;4590;51.462;6.692;2024-01-16T09:12:49;8.10;;;3.72;;
9108;SDS011;4590;51.462;6.692;2024-01-16T09:15:27;7.10;;;3.35;;
9108;SDS011;4590;51.462;6.692;2024-01-16T09:18:15;7.47;;;2.95;;
9108;SDS011;4590;51.462;6.692;2024-01-16T09:21:12;6.85;;;3.25;;
9108;SDS011;4590;51.462;6.692;2024-01-16T09:24:09;8.20;;;3.45;;
9108;SDS011;4590;51.462;6.692;2024-01-16T09:27:31;10.32;;;3.00;;
9108;SDS011;4590;51.462;6.692;2024-01-16T09:30:07;9.90;;;3.88;;
9108;SDS011;4590;51.462;6.692;2024-01-16T09:32:40;6.50;;;3.20;;
9108;SDS011;4590;51.462;6.692;2024-01-16T09:35:19;10.07;;;3.53;;
9108;SDS011;4590;51.462;6.692;2024-01-16T09:37:47;8.77;;;3.30;;
9108;SDS011;4590;51.462;6.692;2024-01-16T09:40:26;9.57;;;3.95;;
9108;SDS011;4590;51.462;6.692;2024-01-16T09:43:06;10.88;;;3.83;;
9108;SDS011;4590;51.462;6.692;2024-01-16T09:45:37;13.25;;;4.15;;
9108;SDS011;4590;51.462;6.692;2024-01-16T09:48:06;10.35;;;4.18;;
9108;SDS011;4590;51.462;6.692;2024-01-16T09:50:52;10.63;;;4.18;;
9108;SDS011;4590;51.462;6.692;2024-01-16T09:56:45;10.98;;;3.88;;
9108;SDS011;4590;51.462;6.692;2024-01-16T09:59:20;11.18;;;4.22;;
9108;SDS011;4590;51.462;6.692;2024-01-16T10:01:53;7.32;;;3.97;;
9108;SDS011;4590;51.462;6.692;2024-01-16T10:04:48;9.75;;;3.95;;
9108;SDS011;4590;51.462;6.692;2024-01-16T10:07:41;9.52;;;4.18;;
9108;SDS011;4590;51.462;6.692;2024-01-16T10:23:50;6.75;;;4.07;;
9108;SDS011;4590;51.462;6.692;2024-01-16T10:26:16;11.07;;;4.30;;
9108;SDS011;4590;51.462;6.692;2024-01-16T10:28:43;11.35;;;4.22;;
9108;SDS011;4590;51.462;6.692;2024-01-16T10:31:09;15.03;;;3.90;;
9108;SDS011;4590;51.462;6.692;2024-01-16T10:33:36;8.25;;;4.13;;
9108;SDS011;4590;51.462;6.692;2024-01-16T10:36:07;10.05;;;3.83;;
9108;SDS011;4590;51.462;6.692;2024-01-16T10:38:35;12.10;;;4.63;;
9108;SDS011;4590;51.462;6.692;2024-01-16T10:41:07;9.23;;;3.97;;
9108;SDS011;4590;51.462;6.692;2024-01-16T10:43:34;8.07;;;3.80;;
9108;SDS011;4590;51.462;6.692;2024-01-16T10:46:17;8.97;;;4.10;;
9108;SDS011;4590;51.462;6.692;2024-01-16T10:48:59;14.18;;;8.00;;
9108;SDS011;4590;51.462;6.692;2024-01-16T10:51:26;10.30;;;4.93;;
9108;SDS011;4590;51.462;6.692;2024-01-16T10:54:03;10.57;;;5.13;;
9108;SDS011;4590;51.462;6.692;2024-01-16T10:56:33;11.88;;;6.10;;
9108;SDS011;4590;51.462;6.692;2024-01-16T11:01:33;10.75;;;6.18;;
9108;SDS011;4590;51.462;6.692;2024-01-16T11:04:00;10.18;;;4.63;;
9108;SDS011;4590;51.462;6.692;2024-01-16T11:08:52;10.80;;;4.00;;
9108;SDS011;4590;51.462;6.692;2024-01-16T11:11:19;9.43;;;4.32;;
9108;SDS011;4590;51.462;6.692;2024-01-16T11:13:45;11.18;;;4.20;;
9108;SDS011;4590;51.462;6.692;2024-01-16T11:16:11;11.80;;;4.43;;
9108;SDS011;4590;51.462;6.692;2024-01-16T11:18:37;10.20;;;4.30;;
9108;SDS011;4590;51.462;6.692;2024-01-16T11:21:04;8.73;;;3.70;;
9108;SDS011;4590;51.462;6.692;2024-01-16T11:23:32;9.10;;;3.75;;
9108;SDS011;4590;51.462;6.692;2024-01-16T11:25:57;11.50;;;4.73;;
9108;SDS011;4590;51.462;6.692;2024-01-16T11:28:26;8.70;;;3.87;;
9108;SDS011;4590;51.462;6.692;2024-01-16T11:30:54;8.30;;;3.75;;
9108;SDS011;4590;51.462;6.692;2024-01-16T11:35:57;9.90;;;4.07;;
9108;SDS011;4590;51.462;6.692;2024-01-16T11:38:23;10.87;;;4.87;;
9108;SDS011;4590;51.462;6.692;2024-01-16T11:40:51;10.05;;;4.40;;
9108;SDS011;4590;51.462;6.692;2024-01-16T11:46:04;8.27;;;3.72;;
9108;SDS011;4590;51.462;6.692;2024-01-16T11:48:32;6.60;;;3.33;;
9108;SDS011;4590;51.462;6.692;2024-01-16T11:50:57;9.83;;;4.33;;
9108;SDS011;4590;51.462;6.692;2024-01-16T11:53:33;7.10;;;3.40;;
9108;SDS011;4590;51.462;6.692;2024-01-16T12:01:43;7.75;;;3.80;;
9108;SDS011;4590;51.462;6.692;2024-01-16T12:04:10;9.65;;;3.90;;
9108;SDS011;4590;51.462;6.692;2024-01-16T12:06:36;9.60;;;4.13;;
9108;SDS011;4590;51.462;6.692;2024-01-16T12:09:12;12.10;;;4.75;;
9108;SDS011;4590;51.462;6.692;2024-01-16T12:11:39;8.25;;;4.05;;
9108;SDS011;4590;51.462;6.692;2024-01-16T12:14:05;10.25;;;4.32;;
9108;SDS011;4590;51.462;6.692;2024-01-16T12:16:30;11.40;;;4.50;;
9108;SDS011;4590;51.462;6.692;2024-01-16T12:19:05;11.17;;;4.53;;
9108;SDS011;4590;51.462;6.692;2024-01-16T12:21:32;11.45;;;4.78;;
9108;SDS011;4590;51.462;6.692;2024-01-16T12:23:59;9.15;;;3.85;;
9108;SDS011;4590;51.462;6.692;2024-01-16T12:26:24;9.43;;;4.10;;
9108;SDS011;4590;51.462;6.692;2024-01-16T12:28:53;8.13;;;4.13;;
9108;SDS011;4590;51.462;6.692;2024-01-16T12:31:19;8.15;;;4.03;;
9108;SDS011;4590;51.462;6.692;2024-01-16T12:33:44;7.80;;;4.00;;
9108;SDS011;4590;51.462;6.692;2024-01-16T12:36:09;13.33;;;5.10;;
9108;SDS011;4590;51.462;6.692;2024-01-16T12:38:35;10.10;;;4.32;;
9108;SDS011;4590;51.462;6.692;2024-01-16T12:41:01;17.83;;;6.07;;
9108;SDS011;4590;51.462;6.692;2024-01-16T12:43:31;14.23;;;5.75;;
9108;SDS011;4590;51.462;6.692;2024-01-16T12:45:57;11.13;;;4.72;;
9108;SDS011;4590;51.462;6.692;2024-01-16T12:48:24;9.13;;;4.13;;
9108;SDS011;4590;51.462;6.692;2024-01-16T12:50:50;12.88;;;4.22;;
9108;SDS011;4590;51.462;6.692;2024-01-16T12:53:15;10.00;;;3.70;;
9108;SDS011;4590;51.462;6.692;2024-01-16T12:55:44;9.80;;;4.40;;
9108;SDS011;4590;51.462;6.692;2024-01-16T12:58:24;9.48;;;4.85;;
9108;SDS011;4590;51.462;6.692;2024-01-16T13:00:51;14.02;;;4.80;;
9108;SDS011;4590;51.462;6.692;2024-01-16T13:03:20;8.27;;;4.57;;
9108;SDS011;4590;51.462;6.692;2024-01-16T13:05:59;9.90;;;4.50;;
9108;SDS011;4590;51.462;6.692;2024-01-16T13:08:25;11.07;;;4.38;;
9108;SDS011;4590;51.462;6.692;2024-01-16T13:13:32;10.25;;;4.55;;
9108;SDS011;4590;51.462;6.692;2024-01-16T13:15:58;11.18;;;4.63;;
9108;SDS011;4590;51.462;6.692;2024-01-16T13:18:25;14.48;;;5.30;;
9108;SDS011;4590;51.462;6.692;2024-01-16T13:20:52;9.73;;;4.72;;
9108;SDS011;4590;51.462;6.692;2024-01-16T13:25:46;8.05;;;4.63;;
9108;SDS011;4590;51.462;6.692;2024-01-16T13:28:13;10.98;;;4.88;;
9108;SDS011;4590;51.462;6.692;2024-01-16T13:30:39;10.50;;;4.70;;
9108;SDS011;4590;51.462;6.692;2024-01-16T13:33:04;10.52;;;5.25;;
9108;SDS011;4590;51.462;6.692;2024-01-16T13:35:30;14.83;;;5.33;;
9108;SDS011;4590;51.462;6.692;2024-01-16T13:37:56;10.45;;;4.68;;
9108;SDS011;4590;51.462;6.692;2024-01-16T13:40:21;9.43;;;4.90;;
9108;SDS011;4590;51.462;6.692;2024-01-16T13:42:47;13.07;;;4.68;;
9108;SDS011;4590;51.462;6.692;2024-01-16T13:45:13;9.80;;;4.37;;
9108;SDS011;4590;51.462;6.692;2024-01-16T13:47:38;9.27;;;4.50;;
9108;SDS011;4590;51.462;6.692;2024-01-16T13:50:05;12.20;;;5.15;;
9108;SDS011;4590;51.462;6.692;2024-01-16T13:54:57;13.90;;;5.13;;
9108;SDS011;4590;51.462;6.692;2024-01-16T13:57:22;10.00;;;4.40;;
9108;SDS011;4590;51.462;6.692;2024-01-16T13:59:48;8.63;;;4.70;;
9108;SDS011;4590;51.462;6.692;2024-01-16T14:02:13;9.73;;;4.60;;
9108;SDS011;4590;51.462;6.692;2024-01-16T14:04:39;9.93;;;4.70;;
9108;SDS011;4590;51.462;6.692;2024-01-16T14:07:04;19.63;;;5.07;;
9108;SDS011;4590;51.462;6.692;2024-01-16T14:09:34;9.27;;;4.72;;
9108;SDS011;4590;51.462;6.692;2024-01-16T14:12:00;11.25;;;4.70;;
9108;SDS011;4590;51.462;6.692;2024-01-16T14:14:26;14.37;;;4.90;;
9108;SDS011;4590;51.462;6.692;2024-01-16T14:16:52;9.30;;;4.17;;
9108;SDS011;4590;51.462;6.692;2024-01-16T14:19:19;13.43;;;4.40;;
9108;SDS011;4590;51.462;6.692;2024-01-16T14:21:45;10.20;;;4.43;;
9108;SDS011;4590;51.462;6.692;2024-01-16T14:24:12;11.02;;;4.40;;
9108;SDS011;4590;51.462;6.692;2024-01-16T14:26:37;9.37;;;4.43;;
9108;SDS011;4590;51.462;6.692;2024-01-16T14:29:02;12.77;;;5.40;;
9108;SDS011;4590;51.462;6.692;2024-01-16T14:31:40;8.20;;;4.43;;
9108;SDS011;4590;51.462;6.692;2024-01-16T14:34:46;8.80;;;4.35;;
9108;SDS011;4590;51.462;6.692;2024-01-16T14:37:16;9.45;;;4.75;;
9108;SDS011;4590;51.462;6.692;2024-01-16T14:39:41;18.40;;;5.70;;
9108;SDS011;4590;51.462;6.692;2024-01-16T14:42:07;10.43;;;4.80;;
9108;SDS011;4590;51.462;6.692;2024-01-16T14:44:32;9.70;;;3.80;;
9108;SDS011;4590;51.462;6.692;2024-01-16T14:46:58;10.57;;;4.60;;
9108;SDS011;4590;51.462;6.692;2024-01-16T14:49:23;13.23;;;4.87;;
9108;SDS011;4590;51.462;6.692;2024-01-16T14:51:49;8.63;;;4.70;;
9108;SDS011;4590;51.462;6.692;2024-01-16T14:54:15;8.90;;;4.20;;
9108;SDS011;4590;51.462;6.692;2024-01-16T14:56:40;9.67;;;4.30;;
9108;SDS011;4590;51.462;6.692;2024-01-16T14:59:05;8.07;;;3.93;;
9108;SDS011;4590;51.462;6.692;2024-01-16T15:01:31;7.43;;;3.93;;
9108;SDS011;4590;51.462;6.692;2024-01-16T15:03:56;7.33;;;3.73;;
9108;SDS011;4590;51.462;6.692;2024-01-16T15:06:22;7.97;;;4.35;;
9108;SDS011;4590;51.462;6.692;2024-01-16T15:08:48;7.82;;;3.63;;
9108;SDS011;4590;51.462;6.692;2024-01-16T15:11:14;8.83;;;4.07;;
9108;SDS011;4590;51.462;6.692;2024-01-16T15:13:39;10.03;;;4.43;;
9108;SDS011;4590;51.462;6.692;2024-01-16T15:16:10;8.00;;;3.77;;
9108;SDS011;4590;51.462;6.692;2024-01-16T15:18:36;13.95;;;4.38;;
9108;SDS011;4590;51.462;6.692;2024-01-16T15:21:02;10.10;;;4.07;;
9108;SDS011;4590;51.462;6.692;2024-01-16T15:23:27;8.17;;;4.80;;
9108;SDS011;4590;51.462;6.692;2024-01-16T15:25:52;9.63;;;4.63;;
9108;SDS011;4590;51.462;6.692;2024-01-16T15:28:18;15.27;;;10.17;;
9108;SDS011;4590;51.462;6.692;2024-01-16T15:30:43;11.33;;;5.50;;
9108;SDS011;4590;51.462;6.692;2024-01-16T15:33:10;13.82;;;5.57;;
9108;SDS011;4590;51.462;6.692;2024-01-16T15:35:36;8.40;;;4.50;;
9108;SDS011;4590;51.462;6.692;2024-01-16T15:38:02;8.98;;;4.10;;
9108;SDS011;4590;51.462;6.692;2024-01-16T15:40:27;7.23;;;4.00;;
9108;SDS011;4590;51.462;6.692;2024-01-16T15:42:53;8.05;;;3.97;;
9108;SDS011;4590;51.462;6.692;2024-01-16T15:45:19;8.02;;;4.28;;
9108;SDS011;4590;51.462;6.692;2024-01-16T15:47:45;9.20;;;3.85;;
9108;SDS011;4590;51.462;6.692;2024-01-16T15:50:10;8.37;;;4.23;;
9108;SDS011;4590;51.462;6.692;2024-01-16T15:52:36;8.80;;;3.60;;
9108;SDS011;4590;51.462;6.692;2024-01-16T16:01:22;9.30;;;4.85;;
9108;SDS011;4590;51.462;6.692;2024-01-16T16:03:48;8.32;;;4.22;;
9108;SDS011;4590;51.462;6.692;2024-01-16T16:06:14;9.77;;;4.63;;
9108;SDS011;4590;51.462;6.692;2024-01-16T16:08:39;10.60;;;5.10;;
9108;SDS011;4590;51.462;6.692;2024-01-16T16:11:05;12.15;;;5.32;;
9108;SDS011;4590;51.462;6.692;2024-01-16T16:13:30;11.23;;;5.80;;
9108;SDS011;4590;51.462;6.692;2024-01-16T16:15:57;13.17;;;5.63;;
9108;SDS011;4590;51.462;6.692;2024-01-16T16:18:24;12.10;;;5.50;;
9108;SDS011;4590;51.462;6.692;2024-01-16T16:20:50;13.77;;;5.33;;
9108;SDS011;4590;51.462;6.692;2024-01-16T16:23:15;9.10;;;4.80;;
9108;SDS011;4590;51.462;6.692;2024-01-16T16:25:44;8.40;;;4.73;;
9108;SDS011;4590;51.462;6.692;2024-01-16T16:28:11;10.05;;;5.35;;
9108;SDS011;4590;51.462;6.692;2024-01-16T16:30:36;8.50;;;5.17;;
9108;SDS011;4590;51.462;6.692;2024-01-16T16:33:02;7.53;;;4.63;;
9108;SDS011;4590;51.462;6.692;2024-01-16T16:35:27;11.50;;;4.60;;
9108;SDS011;4590;51.462;6.692;2024-01-16T16:37:52;9.27;;;5.03;;
9108;SDS011;4590;51.462;6.692;2024-01-16T16:40:18;9.93;;;4.97;;
9108;SDS011;4590;51.462;6.692;2024-01-16T16:42:43;8.93;;;4.43;;
9108;SDS011;4590;51.462;6.692;2024-01-16T16:45:08;11.10;;;5.10;;
9108;SDS011;4590;51.462;6.692;2024-01-16T16:47:36;7.72;;;4.22;;
9108;SDS011;4590;51.462;6.692;2024-01-16T16:50:01;10.03;;;5.13;;
9108;SDS011;4590;51.462;6.692;2024-01-16T16:52:27;13.10;;;5.45;;
9108;SDS011;4590;51.462;6.692;2024-01-16T16:54:53;12.07;;;5.43;;